Abbott, New Mexico
Current Conditions -  °F | °C
As of 8:53 AM on Thursday 23 Oct 2014 (Local Time) from KRTN Reporting Station
Clear Clear  
Wind Chill: 45°   Ceiling: Unl
Heat Index: 47°   Visibility: 10mi
Dew Point: 37°   Wind: 5mph
Humidity: 68%   Direction: 40°NE
Pressure: 30.26"   Gusts: NA
Location:  36.3883°N, 104.381°W
Report Text: KRTN 231453Z AUTO 04004KT 10SM CLR 08/03 A3026 RMK AO2 SLP198 T00830028 53013
Loading
Personal Weather Stations






























Interactive Weather Map New forecast layout! Learn more

10-Day Weather Forecast

Advertisements
Track Severe Weather on mobile